Time;durP1;ratioP1;P1;durP2;ratioP2;P2;SDS_P1;SDS_P2;PMS_P1;PMS_P2;Temp;Humidity;BMP_temperature;BMP_pressure;BME280_temperature;BME280_humidity;BME280_pressure;Samples;Min_cycle;Max_cycle;Signal;HPM_P1;HPM_P2
2023/02/05 00:00:06;;;;;;;8.52;3.95;;;-1.40;99.90;;;;;;4964438;28;20241;-84
2023/02/05 00:02:33;;;;;;;7.72;3.75;;;-1.30;99.90;;;;;;4963896;28;20198;-84
2023/02/05 00:05:00;;;;;;;4.95;3.53;;;-1.30;99.90;;;;;;4968961;28;20242;-84
2023/02/05 00:07:29;;;;;;;6.90;3.65;;;-1.40;99.90;;;;;;4969992;28;20214;-82
2023/02/05 00:09:59;;;;;;;4.68;3.33;;;-1.30;99.90;;;;;;4961535;28;20552;-86
2023/02/05 00:12:28;;;;;;;8.95;3.90;;;-1.30;99.90;;;;;;4962459;28;20431;-85
2023/02/05 00:14:56;;;;;;;6.93;3.90;;;-1.20;99.90;;;;;;4961644;28;20211;-88
2023/02/05 00:17:24;;;;;;;4.80;3.85;;;-1.20;99.90;;;;;;4961323;28;20689;-84
2023/02/05 00:19:51;;;;;;;6.15;4.10;;;-1.30;99.90;;;;;;4959146;28;20286;-88
2023/02/05 00:22:21;;;;;;;7.75;3.72;;;-1.30;99.90;;;;;;4962383;28;20227;-86
2023/02/05 00:24:48;;;;;;;7.53;3.50;;;-1.40;99.90;;;;;;4956683;28;20222;-85
2023/02/05 00:27:17;;;;;;;6.45;3.88;;;-1.50;99.90;;;;;;4962094;29;20226;-86
2023/02/05 00:29:44;;;;;;;5.78;4.15;;;-1.50;99.90;;;;;;4961371;28;20495;-84
2023/02/05 00:32:11;;;;;;;7.85;3.40;;;-1.60;99.90;;;;;;4962356;28;20546;-85
2023/02/05 00:34:38;;;;;;;7.55;3.70;;;-1.70;99.90;;;;;;4961854;29;20210;-84
2023/02/05 00:37:05;;;;;;;4.75;2.90;;;-1.70;99.90;;;;;;4972201;28;20190;-86
2023/02/05 00:39:32;;;;;;;5.40;3.30;;;-1.70;99.90;;;;;;4980327;28;20218;-86
2023/02/05 00:41:59;;;;;;;6.63;3.90;;;-1.70;99.90;;;;;;4970200;28;20210;-84
2023/02/05 00:44:27;;;;;;;6.15;3.40;;;-1.70;99.90;;;;;;4965339;28;20217;-84
2023/02/05 00:46:55;;;;;;;5.75;3.75;;;-1.70;99.90;;;;;;4974110;28;20211;-84
2023/02/05 00:49:21;;;;;;;8.10;4.03;;;-1.70;99.90;;;;;;4962650;28;20215;-85
2023/02/05 00:51:49;;;;;;;6.75;3.55;;;-1.80;99.90;;;;;;4967328;28;20213;-85
2023/02/05 00:54:16;;;;;;;5.53;3.00;;;-1.90;99.90;;;;;;4970823;28;20598;-83
2023/02/05 00:56:45;;;;;;;7.30;2.92;;;-1.90;99.90;;;;;;4966387;28;20218;-86
2023/02/05 00:59:12;;;;;;;6.25;3.45;;;-1.90;99.90;;;;;;4966092;28;20623;-84
2023/02/05 01:01:40;;;;;;;8.02;3.88;;;-1.90;99.90;;;;;;4965558;28;20218;-82
2023/02/05 01:04:08;;;;;;;4.20;3.08;;;-2.00;99.90;;;;;;4965509;28;20207;-83
2023/02/05 01:06:35;;;;;;;6.95;4.13;;;-2.10;99.90;;;;;;4968998;28;20219;-84
2023/02/05 01:09:02;;;;;;;4.93;2.38;;;-2.10;99.90;;;;;;4961986;28;20507;-83
2023/02/05 01:11:29;;;;;;;5.80;3.05;;;-2.00;99.90;;;;;;4961628;28;20229;-82
2023/02/05 01:13:56;;;;;;;5.53;3.80;;;-2.10;99.90;;;;;;4961235;28;20211;-83
2023/02/05 01:16:24;;;;;;;3.90;3.28;;;-1.90;99.90;;;;;;4959876;29;20206;-82
2023/02/05 01:18:55;;;;;;;8.95;3.10;;;-1.80;99.90;;;;;;4961088;28;20269;-82
2023/02/05 01:21:26;;;;;;;5.25;3.38;;;-1.70;99.90;;;;;;4961234;28;20268;-83
2023/02/05 01:23:54;;;;;;;4.57;3.03;;;-1.70;99.90;;;;;;4961326;28;20213;-83
2023/02/05 01:26:22;;;;;;;6.78;4.78;;;-1.60;99.90;;;;;;4960908;29;20818;-83
2023/02/05 01:28:49;;;;;;;3.58;2.47;;;-1.50;99.90;;;;;;4961012;28;20211;-83
2023/02/05 01:31:20;;;;;;;7.90;3.55;;;-1.50;99.90;;;;;;4964570;28;20203;-82
2023/02/05 01:33:48;;;;;;;5.38;3.47;;;-1.40;99.90;;;;;;4959401;29;20519;-84
2023/02/05 01:36:24;;;;;;;5.38;3.55;;;-1.50;99.90;;;;;;4963168;28;20538;-82
2023/02/05 01:38:56;;;;;;;6.28;3.53;;;-1.60;99.90;;;;;;4970247;28;20223;-82
2023/02/05 01:41:24;;;;;;;7.40;3.67;;;-1.80;99.90;;;;;;4969726;29;20210;-83
2023/02/05 01:44:17;;;;;;;5.22;2.88;;;-1.80;99.90;;;;;;4963016;29;20209;-83
2023/02/05 01:46:45;;;;;;;8.45;3.33;;;-1.80;99.90;;;;;;4963820;28;20712;-82
2023/02/05 01:49:24;;;;;;;6.57;3.05;;;-1.80;99.90;;;;;;4964221;28;20206;-84
2023/02/05 01:51:54;;;;;;;8.32;3.45;;;-2.00;99.90;;;;;;4964661;28;20425;-82
2023/02/05 01:54:24;;;;;;;8.23;3.70;;;-1.90;99.90;;;;;;4964567;28;20262;-81
2023/02/05 01:56:58;;;;;;;4.55;3.28;;;-1.90;99.90;;;;;;4963894;29;20246;-82
2023/02/05 01:59:28;;;;;;;3.78;3.33;;;-1.90;99.90;;;;;;4953049;28;20232;-85
2023/02/05 02:01:57;;;;;;;4.65;3.30;;;-2.00;99.90;;;;;;4966444;28;20203;-84
2023/02/05 02:04:45;;;;;;;3.53;2.75;;;-1.90;99.90;;;;;;4965858;28;20286;-82
2023/02/05 02:07:16;;;;;;;6.05;3.38;;;-2.00;99.90;;;;;;4983950;28;20206;-84
2023/02/05 02:09:48;;;;;;;6.25;3.92;;;-1.90;99.90;;;;;;4950843;29;20510;-82
2023/02/05 02:12:22;;;;;;;5.80;3.97;;;-1.90;99.90;;;;;;4964010;28;20218;-83
2023/02/05 02:14:54;;;;;;;6.22;4.63;;;-1.80;99.90;;;;;;4947551;28;20209;-87
2023/02/05 02:17:22;;;;;;;7.70;4.05;;;-1.70;99.90;;;;;;4963990;28;20254;-81
2023/02/05 02:20:05;;;;;;;5.43;3.83;;;-1.80;99.90;;;;;;4960041;29;20230;-82
2023/02/05 02:22:53;;;;;;;5.70;3.88;;;-1.90;99.90;;;;;;4963873;28;20210;-81
2023/02/05 02:25:33;;;;;;;4.57;3.78;;;-2.00;99.90;;;;;;4963846;28;20210;-82
2023/02/05 02:28:01;;;;;;;6.88;3.80;;;-2.00;99.90;;;;;;4960237;28;20211;-82
2023/02/05 02:30:45;;;;;;;11.52;4.00;;;-2.10;99.90;;;;;;4967623;28;20234;-81
2023/02/05 02:33:31;;;;;;;8.25;4.45;;;-2.20;99.90;;;;;;4969065;28;20238;-81
2023/02/05 02:36:27;;;;;;;10.63;4.25;;;-2.20;99.90;;;;;;4962474;28;20407;-85
2023/02/05 02:39:17;;;;;;;6.20;4.00;;;-2.30;99.90;;;;;;4958950;28;20210;-83
2023/02/05 02:42:01;;;;;;;8.65;4.75;;;-2.20;99.90;;;;;;4962835;28;20207;-83
2023/02/05 02:45:08;;;;;;;4.32;3.45;;;-2.10;99.90;;;;;;4964299;28;20728;-84
2023/02/05 02:47:43;;;;;;;5.15;4.35;;;-2.20;99.90;;;;;;4962563;28;20210;-85
2023/02/05 02:50:31;;;;;;;4.72;4.20;;;-2.10;99.90;;;;;;4977328;28;20277;-84
2023/02/05 02:53:10;;;;;;;8.45;5.05;;;-1.90;99.90;;;;;;4962345;29;20234;-81
2023/02/05 02:55:41;;;;;;;8.38;3.92;;;-2.10;99.90;;;;;;4963607;28;20258;-83
2023/02/05 02:58:17;;;;;;;7.60;3.75;;;-2.10;99.90;;;;;;4962828;28;20211;-82
2023/02/05 03:00:45;;;;;;;6.10;4.95;;;-2.20;99.90;;;;;;4963483;28;20251;-83
2023/02/05 03:03:16;;;;;;;8.93;3.78;;;-2.20;99.90;;;;;;4963316;28;20215;-81
2023/02/05 03:05:47;;;;;;;6.05;4.68;;;-2.30;99.90;;;;;;4974696;28;20194;-82
2023/02/05 03:08:25;;;;;;;6.50;4.88;;;-2.40;99.90;;;;;;4971361;28;20208;-82
2023/02/05 03:11:06;;;;;;;9.70;4.60;;;-2.50;99.90;;;;;;4946650;29;20262;-82
2023/02/05 03:13:34;;;;;;;6.55;3.50;;;-2.50;99.90;;;;;;4963522;28;20213;-82
2023/02/05 03:16:02;;;;;;;7.40;4.47;;;-2.50;99.90;;;;;;4962920;28;20648;-83
2023/02/05 03:18:30;;;;;;;5.05;4.10;;;-2.50;99.90;;;;;;4963670;28;20518;-81
2023/02/05 03:21:04;;;;;;;8.73;5.25;;;-2.40;99.90;;;;;;4957875;28;20240;-82
2023/02/05 03:23:32;;;;;;;7.28;4.45;;;-2.40;99.90;;;;;;4966354;28;20372;-82
2023/02/05 03:25:59;;;;;;;6.18;4.60;;;-2.50;99.90;;;;;;4965722;28;20515;-81
2023/02/05 03:28:26;;;;;;;6.22;4.22;;;-2.50;99.90;;;;;;4962708;28;20226;-82
2023/02/05 03:31:09;;;;;;;8.85;5.00;;;-2.40;99.90;;;;;;4961998;29;20230;-82
2023/02/05 03:34:01;;;;;;;6.57;5.10;;;-2.20;99.90;;;;;;4964252;28;20529;-82
2023/02/05 03:36:51;;;;;;;8.15;4.78;;;-2.10;99.90;;;;;;4965119;29;20273;-82
2023/02/05 03:39:33;;;;;;;7.05;5.25;;;-2.10;99.90;;;;;;4951908;29;20197;-82
2023/02/05 03:42:48;;;;;;;9.18;4.90;;;-2.10;99.90;;;;;;4973597;28;20254;-83
2023/02/05 03:45:42;;;;;;;5.72;4.45;;;-2.20;99.90;;;;;;4956855;28;20269;-82
2023/02/05 03:48:21;;;;;;;7.55;5.55;;;-2.30;99.90;;;;;;4961771;28;20222;-81
2023/02/05 03:51:15;;;;;;;7.25;4.75;;;-2.30;99.90;;;;;;4961675;28;20554;-82
2023/02/05 03:54:03;;;;;;;6.53;4.70;;;-2.40;99.90;;;;;;4960784;29;20215;-81
2023/02/05 03:56:36;;;;;;;6.65;4.88;;;-2.50;99.90;;;;;;4960539;28;20211;-84
2023/02/05 03:59:04;;;;;;;9.93;4.78;;;-2.50;99.90;;;;;;4961423;29;20278;-82
2023/02/05 04:01:33;;;;;;;7.35;5.45;;;-2.50;99.90;;;;;;4962101;28;20246;-83
2023/02/05 04:04:00;;;;;;;7.82;4.63;;;-2.60;99.90;;;;;;4964964;28;20195;-83
2023/02/05 04:06:29;;;;;;;7.30;5.90;;;-2.60;99.90;;;;;;4965003;28;20460;-83
2023/02/05 04:08:59;;;;;;;7.57;5.20;;;-2.60;99.90;;;;;;4969401;28;20215;-81
2023/02/05 04:11:28;;;;;;;5.32;4.43;;;-2.60;99.90;;;;;;4963524;28;20243;-81
2023/02/05 04:13:55;;;;;;;4.80;3.80;;;-2.60;99.90;;;;;;4962217;28;20208;-84
2023/02/05 04:16:25;;;;;;;7.72;5.35;;;-2.50;99.90;;;;;;4959904;29;20773;-83
2023/02/05 04:18:58;;;;;;;9.55;5.95;;;-2.50;99.90;;;;;;4960604;29;20262;-83
2023/02/05 04:21:26;;;;;;;4.80;3.83;;;-2.50;99.90;;;;;;4960830;28;20234;-81
2023/02/05 04:23:54;;;;;;;12.38;6.40;;;-2.60;99.90;;;;;;4956714;28;20250;-83
2023/02/05 04:26:24;;;;;;;11.00;5.95;;;-2.70;99.90;;;;;;4948587;29;20246;-81
2023/02/05 04:28:52;;;;;;;7.95;5.00;;;-2.60;99.90;;;;;;4960324;29;20214;-82
2023/02/05 04:31:19;;;;;;;7.65;4.88;;;-2.60;99.90;;;;;;4961236;28;20516;-82
2023/02/05 04:33:46;;;;;;;8.15;5.03;;;-2.60;99.90;;;;;;4961929;28;20554;-84
2023/02/05 04:36:13;;;;;;;13.15;7.82;;;-2.70;99.90;;;;;;4960476;29;20203;-85
2023/02/05 04:38:40;;;;;;;11.52;10.32;;;-2.70;99.90;;;;;;4961532;29;20663;-83
2023/02/05 04:41:08;;;;;;;14.45;10.52;;;-2.90;99.90;;;;;;4961698;29;20222;-83
2023/02/05 04:43:36;;;;;;;15.77;11.23;;;-2.90;99.90;;;;;;4960745;28;20212;-84
2023/02/05 04:46:07;;;;;;;13.45;11.77;;;-2.90;99.90;;;;;;4961725;28;20207;-85
2023/02/05 04:48:35;;;;;;;14.73;11.68;;;-2.90;99.90;;;;;;4961876;28;20288;-85
2023/02/05 04:51:11;;;;;;;17.33;12.98;;;-2.90;99.90;;;;;;4961831;28;20506;-85
2023/02/05 04:53:45;;;;;;;20.95;15.40;;;-2.80;99.90;;;;;;4960779;29;20445;-83
2023/02/05 04:56:15;;;;;;;15.70;11.98;;;-3.00;99.90;;;;;;4959301;28;20207;-80
2023/02/05 04:58:44;;;;;;;14.48;10.15;;;-2.90;99.90;;;;;;4961083;28;20839;-81
2023/02/05 05:01:18;;;;;;;10.60;7.03;;;-3.00;99.90;;;;;;4960421;28;20278;-81
2023/02/05 05:03:47;;;;;;;9.90;7.15;;;-3.00;99.90;;;;;;4965095;28;20220;-81
2023/02/05 05:06:15;;;;;;;12.05;9.35;;;-3.10;99.90;;;;;;4971061;28;20225;-81
2023/02/05 05:08:43;;;;;;;16.98;15.20;;;-3.00;99.90;;;;;;4967746;28;20347;-83
2023/02/05 05:11:13;;;;;;;22.98;17.10;;;-3.00;99.90;;;;;;4967278;28;20219;-82
2023/02/05 05:13:41;;;;;;;16.75;14.05;;;-2.90;99.90;;;;;;4963268;29;20242;-82
2023/02/05 05:16:10;;;;;;;16.80;13.27;;;-2.90;99.90;;;;;;4967647;28;20206;-82
2023/02/05 05:18:38;;;;;;;9.27;7.70;;;-3.00;99.90;;;;;;4963072;28;20215;-81
2023/02/05 05:21:05;;;;;;;8.77;7.30;;;-3.00;99.90;;;;;;4971581;28;20238;-81
2023/02/05 05:23:33;;;;;;;16.33;9.55;;;-2.80;99.90;;;;;;4964369;28;20270;-82
2023/02/05 05:26:04;;;;;;;16.77;11.20;;;-2.80;99.90;;;;;;4965393;28;20433;-82
2023/02/05 05:28:34;;;;;;;12.23;9.55;;;-2.90;99.90;;;;;;4969870;28;20215;-83
2023/02/05 05:31:10;;;;;;;10.55;7.78;;;-2.80;99.90;;;;;;4973726;28;20436;-81
2023/02/05 05:33:38;;;;;;;10.93;9.65;;;-2.90;99.90;;;;;;4969813;28;20234;-82
2023/02/05 05:36:06;;;;;;;12.85;9.45;;;-3.00;99.90;;;;;;4964116;29;20213;-82
2023/02/05 05:38:35;;;;;;;14.57;8.65;;;-2.90;99.90;;;;;;4968348;28;20207;-81
2023/02/05 05:43:50;;;;;;;11.50;8.30;;;-2.90;99.90;;;;;;4971525;28;20216;-82
2023/02/05 05:46:21;;;;;;;9.60;7.88;;;-2.70;99.90;;;;;;4969369;28;20223;-82
2023/02/05 05:48:54;;;;;;;12.85;7.72;;;-2.70;99.90;;;;;;4964017;28;20217;-81
2023/02/05 05:51:24;;;;;;;12.73;8.65;;;-2.70;99.90;;;;;;4966450;29;20259;-82
2023/02/05 05:53:52;;;;;;;10.05;6.95;;;-2.80;99.90;;;;;;4959674;28;20385;-82
2023/02/05 05:56:20;;;;;;;13.95;7.47;;;-2.80;99.90;;;;;;4952124;28;20254;-82
2023/02/05 05:58:47;;;;;;;12.35;8.05;;;-2.80;99.90;;;;;;4978632;28;20207;-80
2023/02/05 06:01:19;;;;;;;14.73;9.73;;;-2.90;99.90;;;;;;4972338;28;20228;-81
2023/02/05 06:03:45;;;;;;;10.52;7.45;;;-2.90;99.90;;;;;;4962848;28;20247;-80
2023/02/05 06:06:12;;;;;;;13.75;8.68;;;-2.80;99.90;;;;;;4981415;28;20221;-82
2023/02/05 06:08:40;;;;;;;12.20;7.72;;;-3.00;99.90;;;;;;4979344;28;20206;-83
2023/02/05 06:11:07;;;;;;;17.83;8.95;;;-3.10;99.90;;;;;;4968384;28;21438;-83
2023/02/05 06:13:37;;;;;;;16.23;10.13;;;-3.30;99.90;;;;;;4973951;28;20281;-83
2023/02/05 06:16:04;;;;;;;13.50;9.00;;;-3.10;99.90;;;;;;4966207;28;20478;-82
2023/02/05 06:18:32;;;;;;;14.43;8.90;;;-3.20;99.90;;;;;;4956069;29;20206;-82
2023/02/05 06:21:04;;;;;;;15.75;11.13;;;-3.40;99.90;;;;;;4965457;29;20231;-83
2023/02/05 06:23:33;;;;;;;17.85;10.32;;;-3.40;99.90;;;;;;4963994;28;20531;-82
2023/02/05 06:26:00;;;;;;;12.70;9.10;;;-3.40;99.90;;;;;;4970649;28;20197;-82
2023/02/05 06:28:27;;;;;;;13.40;10.23;;;-3.30;99.90;;;;;;4959454;29;20299;-82
2023/02/05 06:30:54;;;;;;;17.58;11.07;;;-3.50;99.90;;;;;;4964887;28;20234;-83
2023/02/05 06:33:24;;;;;;;16.35;10.77;;;-3.60;99.90;;;;;;4965063;28;20195;-83
2023/02/05 06:35:53;;;;;;;14.70;10.30;;;-3.60;99.90;;;;;;4965164;29;20287;-82
2023/02/05 06:38:20;;;;;;;17.00;10.35;;;-3.70;99.90;;;;;;4961092;29;20245;-82
2023/02/05 06:40:48;;;;;;;15.57;10.73;;;-3.60;99.90;;;;;;4957640;29;20227;-83
2023/02/05 06:43:15;;;;;;;16.48;9.02;;;-3.60;99.90;;;;;;4964698;28;20206;-82
2023/02/05 06:45:43;;;;;;;15.00;10.00;;;-3.70;99.90;;;;;;4962747;29;20207;-81
2023/02/05 06:48:10;;;;;;;14.23;9.98;;;-3.60;99.90;;;;;;4946901;29;20519;-82
2023/02/05 06:50:38;;;;;;;15.77;9.90;;;-3.50;99.90;;;;;;4960672;28;20215;-83
2023/02/05 06:53:06;;;;;;;13.30;9.32;;;-3.50;99.90;;;;;;4962487;28;20227;-82
2023/02/05 06:55:36;;;;;;;13.82;8.80;;;-3.50;99.90;;;;;;4955020;29;20218;-82
2023/02/05 06:58:03;;;;;;;15.07;9.85;;;-3.40;99.90;;;;;;4958680;29;20282;-83
2023/02/05 07:00:33;;;;;;;13.00;9.13;;;-3.50;99.90;;;;;;4961706;28;20291;-83
2023/02/05 07:03:00;;;;;;;17.60;11.93;;;-3.50;99.90;;;;;;4963539;28;20372;-82
2023/02/05 07:05:28;;;;;;;14.63;10.63;;;-3.50;99.90;;;;;;4963153;28;20219;-85
2023/02/05 07:07:58;;;;;;;16.55;11.60;;;-3.40;99.90;;;;;;4953534;28;20207;-83
2023/02/05 07:10:29;;;;;;;15.13;10.20;;;-3.50;99.90;;;;;;4962259;29;20275;-84
2023/02/05 07:12:56;;;;;;;23.45;10.30;;;-3.40;99.90;;;;;;4959136;28;20214;-83
2023/02/05 07:15:24;;;;;;;10.93;8.38;;;-3.40;99.90;;;;;;4963054;28;20215;-82
2023/02/05 07:17:51;;;;;;;15.57;10.18;;;-3.40;99.90;;;;;;4961557;28;20211;-83
2023/02/05 07:20:22;;;;;;;12.80;9.20;;;-3.40;99.90;;;;;;4962998;28;20247;-79
2023/02/05 07:22:49;;;;;;;19.08;10.77;;;-3.30;99.90;;;;;;4961667;28;20214;-84
2023/02/05 07:25:16;;;;;;;15.18;11.38;;;-3.10;99.90;;;;;;4963096;29;20340;-83
2023/02/05 07:27:43;;;;;;;17.30;8.65;;;-3.00;99.90;;;;;;4963416;28;20199;-82
2023/02/05 07:30:12;;;;;;;13.25;8.40;;;-2.90;99.90;;;;;;4962257;28;20209;-80
2023/02/05 07:32:39;;;;;;;14.63;9.13;;;-2.90;99.90;;;;;;4960794;29;20222;-81
2023/02/05 07:35:06;;;;;;;15.68;9.65;;;-2.70;99.90;;;;;;4961225;28;20199;-80
2023/02/05 07:37:36;;;;;;;19.20;10.35;;;-2.40;99.90;;;;;;4957364;29;20241;-81
2023/02/05 07:40:03;;;;;;;17.77;10.25;;;-2.20;99.90;;;;;;4971338;28;20207;-80
2023/02/05 07:42:30;;;;;;;18.30;10.00;;;-1.80;99.90;;;;;;4953056;28;20296;-80
2023/02/05 07:44:57;;;;;;;13.65;9.05;;;-1.50;99.90;;;;;;4957376;28;20203;-80
2023/02/05 07:47:24;;;;;;;15.35;9.30;;;-0.80;99.90;;;;;;4964749;28;20212;-80
2023/02/05 07:49:53;;;;;;;10.20;6.32;;;-0.10;99.90;;;;;;4958067;29;20202;-80
2023/02/05 07:52:20;;;;;;;10.63;7.05;;;0.60;99.90;;;;;;4958732;28;20234;-80
2023/02/05 07:54:48;;;;;;;9.65;5.78;;;1.60;99.90;;;;;;4956556;28;20207;-80
2023/02/05 07:57:14;;;;;;;10.98;6.30;;;2.50;99.90;;;;;;4958059;28;20213;-81
2023/02/05 07:59:42;;;;;;;9.15;5.60;;;3.50;99.90;;;;;;4955667;28;20214;-80
2023/02/05 08:02:10;;;;;;;8.50;6.60;;;4.40;99.90;;;;;;4958141;28;20230;-81
2023/02/05 08:04:37;;;;;;;6.40;4.60;;;4.70;99.90;;;;;;4952676;28;20255;-79
2023/02/05 08:07:04;;;;;;;12.00;5.47;;;4.30;99.90;;;;;;4959391;28;20309;-78
2023/02/05 08:09:32;;;;;;;10.48;5.75;;;4.60;99.90;;;;;;4953278;28;20219;-79
2023/02/05 08:11:58;;;;;;;5.40;4.85;;;5.40;99.90;;;;;;4963425;28;20217;-81
2023/02/05 08:14:25;;;;;;;6.95;5.05;;;6.20;99.90;;;;;;4959176;28;20203;-79
2023/02/05 08:16:53;;;;;;;9.48;5.53;;;7.10;99.90;;;;;;4961963;28;20322;-79
2023/02/05 08:19:20;;;;;;;6.22;4.25;;;7.70;99.90;;;;;;4970284;28;20241;-80
2023/02/05 08:21:48;;;;;;;7.85;4.97;;;6.60;99.90;;;;;;4962099;28;20272;-79
2023/02/05 08:24:15;;;;;;;7.32;4.90;;;4.80;99.90;;;;;;4963819;28;20254;-78
2023/02/05 08:26:43;;;;;;;11.90;4.63;;;3.10;99.90;;;;;;4961397;28;20213;-77
2023/02/05 08:29:11;;;;;;;5.93;4.90;;;1.70;99.90;;;;;;4971498;28;20208;-77
2023/02/05 08:31:37;;;;;;;11.02;6.03;;;0.80;99.90;;;;;;4971770;28;20235;-77
2023/02/05 08:34:04;;;;;;;7.70;4.63;;;0.30;99.90;;;;;;4966024;28;20725;-80
2023/02/05 08:36:33;;;;;;;11.20;5.65;;;0.30;99.90;;;;;;4961263;28;20275;-78
2023/02/05 08:39:05;;;;;;;10.13;7.80;;;0.30;99.90;;;;;;4970776;28;20228;-78
2023/02/05 08:41:32;;;;;;;11.82;6.85;;;-0.20;99.90;;;;;;4966057;28;20226;-77
2023/02/05 08:44:01;;;;;;;9.50;5.40;;;-0.30;99.90;;;;;;4968778;28;20221;-80
2023/02/05 08:46:27;;;;;;;7.28;6.20;;;-0.20;99.90;;;;;;4959825;28;20273;-77
2023/02/05 08:49:06;;;;;;;8.13;5.90;;;0.10;99.90;;;;;;4961862;28;20207;-79
2023/02/05 08:51:34;;;;;;;7.50;5.40;;;0.70;99.90;;;;;;4974070;28;20233;-77
2023/02/05 08:54:02;;;;;;;7.28;5.50;;;0.80;99.90;;;;;;4964388;28;20273;-79
2023/02/05 08:56:29;;;;;;;7.03;4.78;;;0.20;99.90;;;;;;4960740;28;20206;-78
2023/02/05 08:58:56;;;;;;;10.18;5.72;;;0.20;99.90;;;;;;4962778;28;20246;-77
2023/02/05 09:01:24;;;;;;;9.88;5.47;;;0.50;99.90;;;;;;4954654;28;20231;-79
2023/02/05 09:03:51;;;;;;;6.25;4.85;;;0.90;99.90;;;;;;4958072;28;20211;-76
2023/02/05 09:06:18;;;;;;;11.35;4.72;;;0.90;99.90;;;;;;4966768;28;20215;-78
2023/02/05 09:08:45;;;;;;;5.93;4.63;;;0.80;99.90;;;;;;4957830;28;20203;-77
2023/02/05 09:11:12;;;;;;;8.45;5.75;;;1.30;99.90;;;;;;4957360;28;20217;-78
2023/02/05 09:13:40;;;;;;;11.43;6.25;;;1.70;99.90;;;;;;4957796;28;20803;-77
2023/02/05 09:16:10;;;;;;;9.10;5.20;;;2.10;99.90;;;;;;4955065;28;20206;-78
2023/02/05 09:18:37;;;;;;;9.95;5.63;;;1.60;99.90;;;;;;4957721;28;20208;-78
2023/02/05 09:21:09;;;;;;;7.85;5.78;;;1.00;99.90;;;;;;4957210;28;20207;-79
2023/02/05 09:23:36;;;;;;;10.95;5.45;;;0.50;99.90;;;;;;4955888;28;20210;-78
2023/02/05 09:26:04;;;;;;;13.77;7.32;;;0.70;99.90;;;;;;4956699;28;20274;-79
2023/02/05 09:28:31;;;;;;;11.10;7.72;;;0.60;99.90;;;;;;4956448;28;20206;-77
2023/02/05 09:31:04;;;;;;;10.27;8.77;;;0.30;99.90;;;;;;4957037;28;20203;-77
2023/02/05 09:33:31;;;;;;;11.27;8.25;;;-0.20;99.90;;;;;;4955770;28;20217;-77
2023/02/05 09:36:08;;;;;;;12.52;8.23;;;-0.40;99.90;;;;;;4958507;28;20523;-80
2023/02/05 09:38:36;;;;;;;10.75;8.00;;;-0.40;99.90;;;;;;4953165;28;20226;-79
2023/02/05 09:41:37;;;;;;;11.57;8.13;;;-0.50;99.90;;;;;;4955764;28;20236;-77
2023/02/05 09:44:15;;;;;;;12.60;8.00;;;-0.40;99.90;;;;;;4946740;28;20257;-79
2023/02/05 09:47:02;;;;;;;14.55;9.40;;;-0.40;99.90;;;;;;4955031;28;20454;-78
2023/02/05 09:49:45;;;;;;;10.48;9.15;;;-0.40;99.90;;;;;;4957444;28;20212;-78
2023/02/05 09:52:18;;;;;;;12.40;8.00;;;-0.10;99.90;;;;;;4971605;28;20198;-80
2023/02/05 09:55:25;;;;;;;9.25;7.20;;;-0.10;99.90;;;;;;4985494;28;20199;-78
2023/02/05 09:58:05;;;;;;;6.22;5.25;;;0.20;99.90;;;;;;4930864;29;20216;-77
2023/02/05 10:01:33;;;;;;;7.65;6.22;;;0.40;99.90;;;;;;4977234;28;20178;-78
2023/02/05 10:04:46;;;;;;;10.98;6.57;;;1.00;99.90;;;;;;4903432;29;20208;-78
2023/02/05 10:08:02;;;;;;;4.47;3.70;;;1.30;99.90;;;;;;4893905;29;20183;-80
2023/02/05 10:10:52;;;;;;;6.90;6.28;;;1.40;99.90;;;;;;4980202;28;20637;-78
2023/02/05 10:13:31;;;;;;;7.10;3.97;;;1.40;99.90;;;;;;4956958;28;20211;-78
2023/02/05 10:16:37;;;;;;;9.02;4.88;;;1.10;99.90;;;;;;4964203;28;20218;-77
2023/02/05 10:19:04;;;;;;;6.60;3.72;;;0.90;99.90;;;;;;4948924;28;20870;-78
2023/02/05 10:22:04;;;;;;;3.75;2.55;;;0.70;99.90;;;;;;4974169;28;20234;-78
2023/02/05 10:25:03;;;;;;;3.90;2.28;;;0.50;99.90;;;;;;4956532;28;20210;-78
2023/02/05 10:27:51;;;;;;;3.00;2.67;;;0.30;99.90;;;;;;4980729;28;20744;-79
2023/02/05 10:30:41;;;;;;;5.85;2.97;;;0.10;99.90;;;;;;4962410;28;20199;-78
2023/02/05 10:33:17;;;;;;;3.80;2.90;;;0.30;99.90;;;;;;4973705;28;20211;-78
2023/02/05 10:35:57;;;;;;;3.15;2.85;;;0.40;99.90;;;;;;4969471;28;20235;-78
2023/02/05 10:38:27;;;;;;;4.07;2.95;;;0.50;99.90;;;;;;4970961;28;20261;-79
2023/02/05 10:40:57;;;;;;;3.53;2.35;;;0.50;99.90;;;;;;4963318;28;20207;-78
2023/02/05 10:43:36;;;;;;;3.08;2.20;;;0.50;99.90;;;;;;4962608;28;20238;-80
2023/02/05 10:46:04;;;;;;;3.20;2.33;;;0.40;99.90;;;;;;4964713;28;20210;-81
2023/02/05 10:48:38;;;;;;;6.63;2.40;;;0.30;99.90;;;;;;4973202;28;20217;-78
2023/02/05 10:51:23;;;;;;;4.95;2.63;;;0.20;99.90;;;;;;4963797;28;20207;-78
2023/02/05 10:53:51;;;;;;;4.30;2.25;;;0.30;99.90;;;;;;4959936;28;20210;-78
2023/02/05 10:56:18;;;;;;;2.60;2.13;;;0.30;99.90;;;;;;4964332;28;20246;-80
2023/02/05 10:58:54;;;;;;;4.25;2.22;;;0.30;99.90;;;;;;4963193;28;20510;-78
2023/02/05 11:01:26;;;;;;;3.25;1.98;;;0.20;99.90;;;;;;4960847;28;20226;-78
2023/02/05 11:04:12;;;;;;;2.45;2.20;;;0.30;99.90;;;;;;4957878;28;20229;-78
2023/02/05 11:06:50;;;;;;;7.55;2.63;;;0.20;99.90;;;;;;4973363;28;20234;-77
2023/02/05 11:09:24;;;;;;;4.07;2.95;;;0.30;99.90;;;;;;4956504;28;20223;-78
2023/02/05 11:12:01;;;;;;;2.70;1.95;;;0.20;99.90;;;;;;4957485;28;20210;-77
2023/02/05 11:14:35;;;;;;;3.45;2.47;;;0.30;99.90;;;;;;4958484;28;20662;-79
2023/02/05 11:17:23;;;;;;;2.60;2.15;;;0.30;99.90;;;;;;4954418;28;20396;-79
2023/02/05 11:19:56;;;;;;;5.97;2.60;;;0.30;99.90;;;;;;4959131;28;20207;-77
2023/02/05 11:22:29;;;;;;;3.72;3.28;;;0.40;99.90;;;;;;4961611;28;20231;-80
2023/02/05 11:25:16;;;;;;;2.75;2.25;;;0.50;99.90;;;;;;4961582;28;20215;-78
2023/02/05 11:27:53;;;;;;;16.45;3.08;;;0.40;99.90;;;;;;4970117;28;20207;-78
2023/02/05 11:30:34;;;;;;;3.78;2.67;;;0.40;99.90;;;;;;4964137;28;20195;-79
2023/02/05 11:33:27;;;;;;;5.07;2.50;;;0.50;99.90;;;;;;4964014;28;20237;-80
2023/02/05 11:35:58;;;;;;;3.17;2.53;;;0.60;99.90;;;;;;4960522;28;20195;-81
2023/02/05 11:38:45;;;;;;;6.43;3.58;;;0.80;99.90;;;;;;4967588;28;20218;-80
2023/02/05 11:41:24;;;;;;;4.85;2.60;;;1.20;99.90;;;;;;4973396;29;20199;-80
2023/02/05 11:43:54;;;;;;;3.83;2.55;;;1.40;99.90;;;;;;4988126;28;20175;-80
2023/02/05 11:46:24;;;;;;;3.30;3.10;;;1.40;99.90;;;;;;4987816;28;20175;-79
2023/02/05 11:48:57;;;;;;;9.05;2.47;;;1.40;99.90;;;;;;4979254;28;20199;-81
2023/02/05 11:51:45;;;;;;;3.42;1.90;;;1.90;99.90;;;;;;4979972;28;20191;-79
2023/02/05 11:54:24;;;;;;;5.80;2.50;;;1.90;99.90;;;;;;4978651;28;20204;-81
2023/02/05 11:57:04;;;;;;;2.30;2.08;;;1.80;99.90;;;;;;4974957;28;20238;-80
2023/02/05 11:59:32;;;;;;;2.80;2.40;;;1.80;99.90;;;;;;4976262;28;20210;-80
2023/02/05 12:02:23;;;;;;;3.83;3.25;;;1.80;99.90;;;;;;4975948;28;20236;-80
2023/02/05 12:04:57;;;;;;;4.38;2.50;;;1.50;99.90;;;;;;4972015;28;20211;-81
2023/02/05 12:07:27;;;;;;;5.20;3.20;;;1.60;99.90;;;;;;4973665;28;20524;-82
2023/02/05 12:09:58;;;;;;;4.90;2.45;;;1.80;99.90;;;;;;4972061;28;20225;-81
2023/02/05 12:12:30;;;;;;;9.63;2.70;;;2.40;99.90;;;;;;4964378;28;20283;-83
2023/02/05 12:15:09;;;;;;;4.18;2.40;;;2.40;99.90;;;;;;4959245;28;20467;-83
2023/02/05 12:17:53;;;;;;;2.70;2.13;;;2.20;99.90;;;;;;4952534;28;20551;-81
2023/02/05 12:20:42;;;;;;;3.80;2.45;;;1.90;99.90;;;;;;4962060;28;20200;-81
2023/02/05 12:23:28;;;;;;;3.80;2.70;;;2.10;99.90;;;;;;4957600;28;20236;-81
2023/02/05 12:25:55;;;;;;;3.38;2.70;;;2.20;99.90;;;;;;4973544;28;20263;-83
2023/02/05 12:28:44;;;;;;;3.67;1.88;;;2.20;99.90;;;;;;4959947;28;20283;-83
2023/02/05 12:31:18;;;;;;;5.63;4.82;;;2.30;99.90;;;;;;4957940;28;20227;-82
2023/02/05 12:33:48;;;;;;;5.35;2.70;;;2.50;99.90;;;;;;4954648;28;20437;-82
2023/02/05 12:36:46;;;;;;;8.60;3.28;;;2.60;99.90;;;;;;4954886;28;20252;-82
2023/02/05 12:39:37;;;;;;;3.45;2.42;;;2.80;99.90;;;;;;4949459;28;20223;-81
2023/02/05 12:42:25;;;;;;;3.10;2.50;;;2.50;99.90;;;;;;4957916;28;20275;-82
2023/02/05 12:44:55;;;;;;;7.10;3.05;;;2.60;99.90;;;;;;4961037;28;20489;-81
2023/02/05 12:47:37;;;;;;;3.70;3.13;;;2.70;99.90;;;;;;4962845;28;20209;-81
2023/02/05 12:50:41;;;;;;;5.30;2.72;;;2.50;99.90;;;;;;4956079;28;20219;-80
2023/02/05 12:53:27;;;;;;;4.15;2.95;;;2.10;99.90;;;;;;4963016;28;20275;-80
2023/02/05 12:56:33;;;;;;;3.88;2.85;;;2.20;99.90;;;;;;4956731;28;20207;-81
2023/02/05 12:59:15;;;;;;;4.50;2.78;;;2.00;99.90;;;;;;4968933;28;20212;-82
2023/02/05 13:02:00;;;;;;;3.08;2.30;;;1.90;99.90;;;;;;4961270;28;20207;-82
2023/02/05 13:05:04;;;;;;;2.35;2.15;;;1.70;99.90;;;;;;4957591;28;20278;-81
2023/02/05 13:08:22;;;;;;;4.25;2.60;;;2.00;99.90;;;;;;4913677;28;20342;-81
2023/02/05 13:10:57;;;;;;;7.15;4.07;;;2.50;99.90;;;;;;4922196;29;20564;-83
2023/02/05 13:13:30;;;;;;;3.75;2.92;;;2.80;99.90;;;;;;4957874;28;20211;-82
2023/02/05 13:16:08;;;;;;;6.05;3.00;;;3.10;99.90;;;;;;4959453;28;20429;-82
2023/02/05 13:18:40;;;;;;;7.88;3.13;;;2.60;99.90;;;;;;4959904;28;20212;-82
2023/02/05 13:30:44;;;;;;;2.55;2.35;;;2.10;99.90;;;;;;4968341;28;20242;-80